createdAt,value
2018-12-09T00:00:26.013Z,9.23
2018-12-09T00:01:25.992Z,9.2
2018-12-09T00:02:26.025Z,9.16
2018-12-09T00:03:26.290Z,9.09
2018-12-09T00:04:25.937Z,9.12
2018-12-09T00:05:26.165Z,9.04
2018-12-09T00:06:26.081Z,9.06
2018-12-09T00:07:26.143Z,8.99
2018-12-09T00:08:25.970Z,8.93
2018-12-09T00:09:25.837Z,8.97
2018-12-09T00:10:26.080Z,8.96
2018-12-09T00:11:25.796Z,8.99
2018-12-09T00:12:25.779Z,8.91
2018-12-09T00:13:26.110Z,8.93
2018-12-09T00:14:25.736Z,8.91
2018-12-09T00:15:25.491Z,8.87
2018-12-09T00:16:25.952Z,8.86
2018-12-09T00:17:25.686Z,8.78
2018-12-09T00:18:25.405Z,8.75
2018-12-09T00:19:26.000Z,8.79
2018-12-09T00:20:25.648Z,8.78
2018-12-09T00:21:25.876Z,8.76
2018-12-09T00:22:25.832Z,8.73
2018-12-09T00:23:25.610Z,8.71
2018-12-09T00:24:25.343Z,8.75
2018-12-09T00:25:25.813Z,8.87
2018-12-09T00:26:25.273Z,8.86
2018-12-09T00:27:25.242Z,8.84
2018-12-09T00:28:26.359Z,8.9
2018-12-09T00:29:25.719Z,8.87
2018-12-09T00:30:25.455Z,8.83
2018-12-09T00:31:25.156Z,8.88
2018-12-09T00:32:25.154Z,8.78
2018-12-09T00:33:25.378Z,8.84
2018-12-09T00:34:25.608Z,8.84
2018-12-09T00:35:25.594Z,8.97
2018-12-09T00:36:25.576Z,8.97
2018-12-09T00:37:25.657Z,9.04
2018-12-09T00:38:25.541Z,9.13
2018-12-09T00:39:25.633Z,9.13
2018-12-09T00:40:25.540Z,9.25
2018-12-09T00:41:25.516Z,9.3
2018-12-09T00:42:25.240Z,9.27
2018-12-09T00:43:25.438Z,9.46
2018-12-09T00:44:25.288Z,9.43
2018-12-09T00:45:25.406Z,9.43
2018-12-09T00:46:25.380Z,9.39
2018-12-09T00:47:25.352Z,9.45
2018-12-09T00:48:25.337Z,9.43
2018-12-09T00:49:25.324Z,9.45
2018-12-09T00:50:25.065Z,9.35
2018-12-09T00:51:25.033Z,9.39
2018-12-09T00:52:25.262Z,9.4
2018-12-09T00:53:25.232Z,9.42
2018-12-09T00:54:24.991Z,9.45
2018-12-09T00:55:24.998Z,9.39
2018-12-09T00:56:24.922Z,9.39
2018-12-09T00:57:24.909Z,9.42
2018-12-09T00:58:25.151Z,9.43
2018-12-09T00:59:24.915Z,9.32
2018-12-09T01:00:25.158Z,9.25
2018-12-09T01:01:25.075Z,9.32
2018-12-09T01:02:24.816Z,9.23
2018-12-09T01:03:24.554Z,9.27
2018-12-09T01:04:24.770Z,9.25
2018-12-09T01:05:24.762Z,9.27
2018-12-09T01:06:24.737Z,9.16
2018-12-09T01:07:24.717Z,9.28
2018-12-09T01:08:24.689Z,9.24
2018-12-09T01:09:24.664Z,9.27
2018-12-09T01:10:24.659Z,9.21
2018-12-09T01:11:24.885Z,9.25
2018-12-09T01:12:24.615Z,9.16
2018-12-09T01:13:24.861Z,9.21
2018-12-09T01:14:24.829Z,9.16
2018-12-09T01:15:24.834Z,9.15
2018-12-09T01:16:24.557Z,9.15
2018-12-09T01:17:24.763Z,9.12
2018-12-09T01:18:24.255Z,9.18
2018-12-09T01:19:24.561Z,9.15
2018-12-09T01:20:24.706Z,9.1
2018-12-09T01:21:24.725Z,9.13
2018-12-09T01:22:24.703Z,9.1
2018-12-09T01:23:24.644Z,9.12
2018-12-09T01:24:24.391Z,9.06
2018-12-09T01:25:24.110Z,8.97
2018-12-09T01:26:24.603Z,8.96
2018-12-09T01:27:24.881Z,8.93
2018-12-09T01:28:24.053Z,8.91
2018-12-09T01:29:24.546Z,8.9
2018-12-09T01:30:24.524Z,8.88
2018-12-09T01:31:24.498Z,8.91
2018-12-09T01:32:24.790Z,8.86
2018-12-09T01:33:24.493Z,8.83
2018-12-09T01:34:24.194Z,8.73
2018-12-09T01:35:24.429Z,8.71
2018-12-09T01:36:24.151Z,8.66
2018-12-09T01:37:24.434Z,8.57
2018-12-09T01:38:24.156Z,8.6
2018-12-09T01:39:24.084Z,8.55
2018-12-09T01:40:24.323Z,8.48
2018-12-09T01:41:24.050Z,8.36
2018-12-09T01:42:24.292Z,8.33
2018-12-09T01:43:23.756Z,8.35
2018-12-09T01:44:23.998Z,8.33
2018-12-09T01:45:24.017Z,8.32
2018-12-09T01:46:23.988Z,8.21
2018-12-09T01:47:24.147Z,8.2
2018-12-09T01:48:23.925Z,8.26
2018-12-09T01:49:23.937Z,8.2
2018-12-09T01:50:23.867Z,8.26
2018-12-09T01:51:23.859Z,8.26
2018-12-09T01:52:23.839Z,8.35
2018-12-09T01:53:23.804Z,8.36
2018-12-09T01:54:24.043Z,8.39
2018-12-09T01:55:24.079Z,8.33
2018-12-09T01:56:24.346Z,8.3
2018-12-09T01:57:23.992Z,8.47
2018-12-09T01:58:23.976Z,8.44
2018-12-09T01:59:23.694Z,8.45
2018-12-09T02:00:23.719Z,8.44
2018-12-09T02:01:23.918Z,8.51
2018-12-09T02:02:23.624Z,8.45
2018-12-09T02:03:23.927Z,8.53
2018-12-09T02:04:23.350Z,8.54
2018-12-09T02:05:23.684Z,8.62
2018-12-09T02:06:24.045Z,8.68
2018-12-09T02:07:23.531Z,8.57
2018-12-09T02:08:23.768Z,8.72
2018-12-09T02:09:23.491Z,8.71
2018-12-09T02:10:23.728Z,8.79
2018-12-09T02:11:23.209Z,8.71
2018-12-09T02:12:23.446Z,8.71
2018-12-09T02:13:23.423Z,8.86
2018-12-09T02:14:23.398Z,8.9
2018-12-09T02:15:23.645Z,8.87
2018-12-09T02:16:23.664Z,8.87
2018-12-09T02:17:23.335Z,8.83
2018-12-09T02:18:23.561Z,8.88
2018-12-09T02:19:23.290Z,8.91
2018-12-09T02:20:23.524Z,8.96
2018-12-09T02:21:23.511Z,8.88
2018-12-09T02:22:23.501Z,8.9
2018-12-09T02:23:23.222Z,8.83
2018-12-09T02:24:23.455Z,8.79
2018-12-09T02:25:23.440Z,8.88
2018-12-09T02:26:23.920Z,8.84
2018-12-09T02:27:22.878Z,8.68
2018-12-09T02:28:23.123Z,8.71
2018-12-09T02:29:23.362Z,8.73
2018-12-09T02:30:23.082Z,8.76
2018-12-09T02:31:23.065Z,8.78
2018-12-09T02:32:23.040Z,8.78
2018-12-09T02:33:23.042Z,8.79
2018-12-09T02:34:22.747Z,8.83
2018-12-09T02:35:22.974Z,8.81
2018-12-09T02:36:23.753Z,8.75
2018-12-09T02:37:23.224Z,8.76
2018-12-09T02:38:22.927Z,8.68
2018-12-09T02:39:23.184Z,8.65
2018-12-09T02:40:23.129Z,8.51
2018-12-09T02:41:23.108Z,8.54
2018-12-09T02:42:22.589Z,8.44
2018-12-09T02:43:22.815Z,8.36
2018-12-09T02:44:23.171Z,8.36
2018-12-09T02:45:22.776Z,8.33
2018-12-09T02:46:23.037Z,8.35
2018-12-09T02:47:22.751Z,8.29
2018-12-09T02:48:22.972Z,8.22
2018-12-09T02:49:22.955Z,8.22
2018-12-09T02:50:22.923Z,8.32
2018-12-09T02:51:22.408Z,8.22
2018-12-09T02:52:22.639Z,8.29
2018-12-09T02:53:22.889Z,8.36
2018-12-09T02:54:22.601Z,8.4
2018-12-09T02:55:22.787Z,8.42
2018-12-09T02:56:22.935Z,8.45
2018-12-09T02:57:22.540Z,8.4
2018-12-09T02:58:22.266Z,8.44
2018-12-09T02:59:22.251Z,8.48
2018-12-09T03:00:22.739Z,8.5
2018-12-09T03:01:22.714Z,8.51
2018-12-09T03:02:22.444Z,8.55
2018-12-09T03:03:22.431Z,8.53
2018-12-09T03:04:22.666Z,8.57
2018-12-09T03:05:22.461Z,8.58
2018-12-09T03:06:22.621Z,8.58
2018-12-09T03:07:22.076Z,8.62
2018-12-09T03:08:22.588Z,8.65
2018-12-09T03:09:22.550Z,8.58
2018-12-09T03:10:22.531Z,8.55
2018-12-09T03:11:22.533Z,8.71
2018-12-09T03:12:22.248Z,8.71
2018-12-09T03:13:22.274Z,8.79
2018-12-09T03:14:22.199Z,8.72
2018-12-09T03:15:23.035Z,8.69
2018-12-09T03:16:22.412Z,8.78
2018-12-09T03:17:22.412Z,8.84
2018-12-09T03:18:22.127Z,8.78
2018-12-09T03:19:22.364Z,8.78
2018-12-09T03:20:22.123Z,8.83
2018-12-09T03:21:22.324Z,8.9
2018-12-09T03:22:22.064Z,8.94
2018-12-09T03:23:22.022Z,8.97
2018-12-09T03:24:22.158Z,9.01
2018-12-09T03:25:21.986Z,9.06
2018-12-09T03:26:21.964Z,9.09
2018-12-09T03:27:22.194Z,9.16
2018-12-09T03:28:21.921Z,9.23
2018-12-09T03:29:21.903Z,9.15
2018-12-09T03:30:22.148Z,9.25
2018-12-09T03:31:21.881Z,9.21
2018-12-09T03:32:22.059Z,9.25
2018-12-09T03:33:22.084Z,9.27
2018-12-09T03:34:22.392Z,9.32
2018-12-09T03:35:21.794Z,9.3
2018-12-09T03:36:22.018Z,9.28
2018-12-09T03:37:21.769Z,9.28
2018-12-09T03:38:21.987Z,9.28
2018-12-09T03:39:21.716Z,9.24
2018-12-09T03:40:21.438Z,9.27
2018-12-09T03:41:21.665Z,9.25
2018-12-09T03:42:21.896Z,9.32
2018-12-09T03:43:22.027Z,9.35
2018-12-09T03:44:21.792Z,9.46
2018-12-09T03:45:21.578Z,9.45
2018-12-09T03:46:21.572Z,9.42
2018-12-09T03:47:21.545Z,9.48
2018-12-09T03:48:21.785Z,9.49
2018-12-09T03:49:21.512Z,9.49
2018-12-09T03:50:21.561Z,9.45
2018-12-09T03:51:21.214Z,9.45
2018-12-09T03:52:21.694Z,9.43
2018-12-09T03:53:21.949Z,9.43
2018-12-09T03:54:21.409Z,9.38
2018-12-09T03:55:21.390Z,9.39
2018-12-09T03:56:21.383Z,9.42
2018-12-09T03:57:21.601Z,9.45
2018-12-09T03:58:21.339Z,9.48
2018-12-09T03:59:21.319Z,9.48
2018-12-09T04:00:21.290Z,9.53
2018-12-09T04:01:21.538Z,9.52
2018-12-09T04:02:21.772Z,9.57
2018-12-09T04:03:21.233Z,9.58
2018-12-09T04:04:21.212Z,9.58
2018-12-09T04:05:21.456Z,9.58
2018-12-09T04:06:21.438Z,9.53
2018-12-09T04:07:21.420Z,9.58
2018-12-09T04:08:21.144Z,9.57
2018-12-09T04:09:21.115Z,9.57
2018-12-09T04:10:21.359Z,9.52
2018-12-09T04:11:21.079Z,9.58
2018-12-09T04:12:21.089Z,9.58
2018-12-09T04:13:21.047Z,9.53
2018-12-09T04:14:21.274Z,9.6
2018-12-09T04:15:20.885Z,9.61
2018-12-09T04:16:20.739Z,9.6
2018-12-09T04:17:21.339Z,9.56
2018-12-09T04:18:21.189Z,9.53
2018-12-09T04:19:20.921Z,9.53
2018-12-09T04:20:21.204Z,9.6
2018-12-09T04:21:21.351Z,9.7
2018-12-09T04:22:21.132Z,9.67
2018-12-09T04:23:22.306Z,9.53
2018-12-09T04:24:20.580Z,9.57
2018-12-09T04:25:21.067Z,9.61
2018-12-09T04:26:20.789Z,9.66
2018-12-09T04:27:21.132Z,9.52
2018-12-09T04:28:20.755Z,9.6
2018-12-09T04:29:20.981Z,9.63
2018-12-09T04:30:20.732Z,9.6
2018-12-09T04:31:20.999Z,9.63
2018-12-09T04:32:20.928Z,9.63
2018-12-09T04:33:20.670Z,9.6
2018-12-09T04:34:20.668Z,9.61
2018-12-09T04:35:20.616Z,9.6
2018-12-09T04:36:20.600Z,9.66
2018-12-09T04:37:20.579Z,9.57
2018-12-09T04:38:20.659Z,9.6
2018-12-09T04:39:20.799Z,9.61
2018-12-09T04:40:20.817Z,9.58
2018-12-09T04:41:20.882Z,9.56
2018-12-09T04:42:20.779Z,9.53
2018-12-09T04:43:20.766Z,9.45
2018-12-09T04:44:20.433Z,9.38
2018-12-09T04:45:20.165Z,9.32
2018-12-09T04:46:20.682Z,9.23
2018-12-09T04:47:20.391Z,9.15
2018-12-09T04:48:20.629Z,9.13
2018-12-09T04:49:20.721Z,9.12
2018-12-09T04:50:20.655Z,9.02
2018-12-09T04:51:20.568Z,8.99
2018-12-09T04:52:20.532Z,8.97
2018-12-09T04:53:20.523Z,8.96
2018-12-09T04:54:20.502Z,8.96
2018-12-09T04:55:20.487Z,8.93
2018-12-09T04:56:20.207Z,8.96
2018-12-09T04:57:20.193Z,8.94
2018-12-09T04:58:20.603Z,8.94
2018-12-09T04:59:21.064Z,8.91
2018-12-09T05:00:20.439Z,9.01
2018-12-09T05:01:20.364Z,8.9
2018-12-09T05:02:19.871Z,8.94
2018-12-09T05:03:20.069Z,9.04
2018-12-09T05:04:20.312Z,9.05
2018-12-09T05:05:20.031Z,9.12
2018-12-09T05:06:20.403Z,9.16
2018-12-09T05:07:19.995Z,9.18
2018-12-09T05:08:20.228Z,9.12
2018-12-09T05:09:19.713Z,9.25
2018-12-09T05:10:19.681Z,9.25
2018-12-09T05:11:20.171Z,9.24
2018-12-09T05:12:20.165Z,9.23
2018-12-09T05:13:19.628Z,9.25
2018-12-09T05:14:20.133Z,9.25
2018-12-09T05:15:20.190Z,9.28
2018-12-09T05:16:20.079Z,9.25
2018-12-09T05:17:19.927Z,9.2
2018-12-09T05:18:20.161Z,9.16
2018-12-09T05:19:20.018Z,9.27
2018-12-09T05:20:19.745Z,9.23
2018-12-09T05:21:19.985Z,9.15
2018-12-09T05:22:19.715Z,9.21
2018-12-09T05:23:19.431Z,9.21
2018-12-09T05:24:19.660Z,9.25
2018-12-09T05:25:19.639Z,9.24
2018-12-09T05:26:19.906Z,9.25
2018-12-09T05:27:20.239Z,9.24
2018-12-09T05:28:19.853Z,9.28
2018-12-09T05:29:19.574Z,9.32
2018-12-09T05:30:19.808Z,9.25
2018-12-09T05:31:19.789Z,9.3
2018-12-09T05:32:19.808Z,9.23
2018-12-09T05:33:19.762Z,9.28
2018-12-09T05:34:19.495Z,9.28
2018-12-09T05:35:19.710Z,9.25
2018-12-09T05:36:19.964Z,9.23
2018-12-09T05:37:19.663Z,9.2
2018-12-09T05:38:19.396Z,9.21
2018-12-09T05:39:19.123Z,9.09
2018-12-09T05:40:19.357Z,9.15
2018-12-09T05:41:19.590Z,9.01
2018-12-09T05:42:19.561Z,9.01
2018-12-09T05:43:19.553Z,9.06
2018-12-09T05:44:19.269Z,9.02
2018-12-09T05:45:19.432Z,9.12
2018-12-09T05:46:19.533Z,9.1
2018-12-09T05:47:19.216Z,9.13
2018-12-09T05:48:19.446Z,9.06
2018-12-09T05:49:19.502Z,9.06
2018-12-09T05:50:19.404Z,9.06
2018-12-09T05:51:18.878Z,9.18
2018-12-09T05:52:18.856Z,9.15
2018-12-09T05:53:19.094Z,9.13
2018-12-09T05:54:19.340Z,9.13
2018-12-09T05:55:20.110Z,9.12
2018-12-09T05:56:19.289Z,9.23
2018-12-09T05:57:18.768Z,9.21
2018-12-09T05:58:19.010Z,9.24
2018-12-09T05:59:19.238Z,9.24
2018-12-09T06:00:18.954Z,9.24
2018-12-09T06:01:18.941Z,9.31
2018-12-09T06:02:18.930Z,9.27
2018-12-09T06:03:18.900Z,9.28
2018-12-09T06:04:19.700Z,9.35
2018-12-09T06:05:18.856Z,9.31
2018-12-09T06:06:18.837Z,9.23
2018-12-09T06:07:18.829Z,9.24
2018-12-09T06:08:18.804Z,9.12
2018-12-09T06:09:18.523Z,9.25
2018-12-09T06:10:18.775Z,9.18
2018-12-09T06:11:19.002Z,9.3
2018-12-09T06:12:18.989Z,9.32
2018-12-09T06:13:18.814Z,9.34
2018-12-09T06:14:18.550Z,9.25
2018-12-09T06:15:18.973Z,9.35
2018-12-09T06:16:18.640Z,9.23
2018-12-09T06:17:18.628Z,9.35
2018-12-09T06:18:18.359Z,9.3
2018-12-09T06:19:18.953Z,9.34
2018-12-09T06:20:18.316Z,9.28
2018-12-09T06:21:18.546Z,9.27
2018-12-09T06:22:18.960Z,9.3
2018-12-09T06:23:18.632Z,9.38
2018-12-09T06:24:18.501Z,9.34
2018-12-09T06:25:18.483Z,9.27
2018-12-09T06:26:18.462Z,9.28
2018-12-09T06:27:18.690Z,9.24
2018-12-09T06:28:18.425Z,9.28
2018-12-09T06:29:18.136Z,9.23
2018-12-09T06:30:18.378Z,9.3
2018-12-09T06:31:18.603Z,9.28
2018-12-09T06:32:18.992Z,9.27
2018-12-09T06:33:18.571Z,9.3
2018-12-09T06:34:18.556Z,9.32
2018-12-09T06:35:18.279Z,9.34
2018-12-09T06:36:18.520Z,9.31
2018-12-09T06:37:18.242Z,9.34
2018-12-09T06:38:18.223Z,9.28
2018-12-09T06:39:18.319Z,9.31
2018-12-09T06:40:18.457Z,9.24
2018-12-09T06:41:18.747Z,9.18
2018-12-09T06:42:18.152Z,9.2
2018-12-09T06:43:17.868Z,9.16
2018-12-09T06:44:18.356Z,9.13
2018-12-09T06:45:18.090Z,9.1
2018-12-09T06:46:18.100Z,9.13
2018-12-09T06:47:18.043Z,9.09
2018-12-09T06:48:18.305Z,9.09
2018-12-09T06:49:18.060Z,8.94
2018-12-09T06:50:18.332Z,9.09
2018-12-09T06:51:18.244Z,8.93
2018-12-09T06:52:17.950Z,8.94
2018-12-09T06:53:18.188Z,8.94
2018-12-09T06:54:17.939Z,8.93
2018-12-09T06:55:17.889Z,8.94
2018-12-09T06:56:18.128Z,8.93
2018-12-09T06:57:17.948Z,8.96
2018-12-09T06:58:18.162Z,9.01
2018-12-09T06:59:18.038Z,8.97
2018-12-09T07:00:18.061Z,9.12
2018-12-09T07:01:17.780Z,9.04
2018-12-09T07:02:17.759Z,9.06
2018-12-09T07:03:17.725Z,9.09
2018-12-09T07:04:17.721Z,9.12
2018-12-09T07:05:17.706Z,9.09
2018-12-09T07:06:17.934Z,9.04
2018-12-09T07:07:17.663Z,9.02
2018-12-09T07:08:18.363Z,9.04
2018-12-09T07:09:17.902Z,9.12
2018-12-09T07:10:17.610Z,9.09
2018-12-09T07:11:17.584Z,9.06
2018-12-09T07:12:17.813Z,9.15
2018-12-09T07:13:17.553Z,9.16
2018-12-09T07:14:17.530Z,9.09
2018-12-09T07:15:17.768Z,9.15
2018-12-09T07:16:17.333Z,9.18
2018-12-09T07:17:18.355Z,9.2
2018-12-09T07:18:17.699Z,9.2
2018-12-09T07:19:17.427Z,9.18
2018-12-09T07:20:17.433Z,9.31
2018-12-09T07:21:17.644Z,9.3
2018-12-09T07:22:17.358Z,9.31
2018-12-09T07:23:17.097Z,9.3
2018-12-09T07:24:17.577Z,9.25
2018-12-09T07:25:17.554Z,9.16
2018-12-09T07:26:17.926Z,9.25
2018-12-09T07:27:17.262Z,9.23
2018-12-09T07:28:17.499Z,9.32
2018-12-09T07:29:16.980Z,9.27
2018-12-09T07:30:17.208Z,9.31
2018-12-09T07:31:17.190Z,9.28
2018-12-09T07:32:17.572Z,9.28
2018-12-09T07:33:17.146Z,9.24
2018-12-09T07:34:17.136Z,9.27
2018-12-09T07:35:18.032Z,9.31
2018-12-09T07:36:17.344Z,9.25
2018-12-09T07:37:17.065Z,9.28
2018-12-09T07:38:17.050Z,9.27
2018-12-09T07:39:17.036Z,9.32
2018-12-09T07:40:16.755Z,9.31
2018-12-09T07:41:16.994Z,9.28
2018-12-09T07:42:17.224Z,9.25
2018-12-09T07:43:17.200Z,9.27
2018-12-09T07:44:17.381Z,9.3
2018-12-09T07:45:16.965Z,9.21
2018-12-09T07:46:17.456Z,9.31
2018-12-09T07:47:16.873Z,9.39
2018-12-09T07:48:17.107Z,9.31
2018-12-09T07:49:16.887Z,9.3
2018-12-09T07:50:16.707Z,9.21
2018-12-09T07:51:16.546Z,9.15
2018-12-09T07:52:17.015Z,9.2
2018-12-09T07:53:16.749Z,9.16
2018-12-09T07:54:16.727Z,9.3
2018-12-09T07:55:16.963Z,9.23
2018-12-09T07:56:16.955Z,9.24
2018-12-09T07:57:16.411Z,9.27
2018-12-09T07:58:16.649Z,9.27
2018-12-09T07:59:16.380Z,9.25
2018-12-09T08:00:16.864Z,9.28
2018-12-09T08:01:16.844Z,9.25
2018-12-09T08:02:16.826Z,9.31
2018-12-09T08:03:16.568Z,9.25
2018-12-09T08:04:16.532Z,9.13
2018-12-09T08:05:16.622Z,9.09
2018-12-09T08:06:16.495Z,9.02
2018-12-09T08:07:16.734Z,9.02
2018-12-09T08:08:16.452Z,8.93
2018-12-09T08:09:16.189Z,8.94
2018-12-09T08:10:16.157Z,8.94
2018-12-09T08:11:16.390Z,8.93
2018-12-09T08:12:16.380Z,8.88
2018-12-09T08:13:16.352Z,8.94
2018-12-09T08:14:16.337Z,8.9
2018-12-09T08:15:16.567Z,8.9
2018-12-09T08:16:16.299Z,8.91
2018-12-09T08:17:16.273Z,8.96
2018-12-09T08:18:16.510Z,8.93
2018-12-09T08:19:16.242Z,8.9
2018-12-09T08:20:16.469Z,8.91
2018-12-09T08:21:16.202Z,8.93
2018-12-09T08:22:16.218Z,8.93
2018-12-09T08:23:15.907Z,8.88
2018-12-09T08:24:16.136Z,8.87
2018-12-09T08:25:15.867Z,8.81
2018-12-09T08:26:16.368Z,8.83
2018-12-09T08:27:16.345Z,8.83
2018-12-09T08:28:16.312Z,8.87
2018-12-09T08:29:16.304Z,8.84
2018-12-09T08:30:16.022Z,8.86
2018-12-09T08:31:16.098Z,8.69
2018-12-09T08:32:16.251Z,8.75
2018-12-09T08:33:15.972Z,8.79
2018-12-09T08:34:15.800Z,8.63
2018-12-09T08:35:17.803Z,8.58
2018-12-09T08:36:15.652Z,8.63
2018-12-09T08:37:15.674Z,8.42
2018-12-09T08:38:16.133Z,8.33
2018-12-09T08:39:15.605Z,8.29
2018-12-09T08:40:15.832Z,8.35
2018-12-09T08:41:15.818Z,8.3
2018-12-09T08:42:15.538Z,8.29
2018-12-09T08:43:16.025Z,8.29
2018-12-09T08:44:15.766Z,8.14
2018-12-09T08:45:16.022Z,7.97
2018-12-09T08:46:15.726Z,7.92
2018-12-09T08:47:15.702Z,7.89
2018-12-09T08:48:15.675Z,7.84
2018-12-09T08:49:15.650Z,7.81
2018-12-09T08:50:15.627Z,7.74
2018-12-09T08:51:15.714Z,7.78
2018-12-09T08:52:15.849Z,7.71
2018-12-09T08:53:15.577Z,7.72
2018-12-09T08:54:15.296Z,7.74
2018-12-09T08:55:15.824Z,7.79
2018-12-09T08:56:15.767Z,7.72
2018-12-09T08:57:15.249Z,7.63
2018-12-09T08:58:15.728Z,7.63
2018-12-09T08:59:15.721Z,7.6
2018-12-09T09:00:15.439Z,7.71
2018-12-09T09:01:15.423Z,7.63
2018-12-09T09:02:15.397Z,7.58
2018-12-09T09:03:15.374Z,7.47
2018-12-09T09:04:15.606Z,7.53
2018-12-09T09:05:15.691Z,7.59
2018-12-09T09:06:15.313Z,7.58
2018-12-09T09:07:15.046Z,7.62
2018-12-09T09:08:15.275Z,7.58
2018-12-09T09:09:15.257Z,7.5
2018-12-09T09:10:15.272Z,7.56
2018-12-09T09:11:15.222Z,7.58
2018-12-09T09:12:15.450Z,7.56
2018-12-09T09:13:15.186Z,7.59
2018-12-09T09:14:15.486Z,7.53
2018-12-09T09:15:15.136Z,7.55
2018-12-09T09:16:15.433Z,7.52
2018-12-09T09:17:14.947Z,7.49
2018-12-09T09:18:15.339Z,7.45
2018-12-09T09:19:15.307Z,7.35
2018-12-09T09:20:15.047Z,7.42
2018-12-09T09:21:15.331Z,7.4
2018-12-09T09:22:15.001Z,7.38
2018-12-09T09:23:15.251Z,7.42
2018-12-09T09:24:14.981Z,7.37
2018-12-09T09:25:15.202Z,7.34
2018-12-09T09:26:15.181Z,7.29
2018-12-09T09:27:14.914Z,7.34
2018-12-09T09:28:14.884Z,7.29
2018-12-09T09:29:14.873Z,7.35
2018-12-09T09:30:14.847Z,7.32
2018-12-09T09:31:14.819Z,7.32
2018-12-09T09:32:14.641Z,7.35
2018-12-09T09:33:15.036Z,7.41
2018-12-09T09:34:15.008Z,7.38
2018-12-09T09:35:14.488Z,7.45
2018-12-09T09:36:14.971Z,7.44
2018-12-09T09:37:14.952Z,7.42
2018-12-09T09:38:14.681Z,7.35
2018-12-09T09:39:14.921Z,7.35
2018-12-09T09:40:14.693Z,7.38
2018-12-09T09:41:14.637Z,7.44
2018-12-09T09:42:14.592Z,7.41
2018-12-09T09:43:14.578Z,7.38
2018-12-09T09:44:14.922Z,7.42
2018-12-09T09:45:14.785Z,7.34
2018-12-09T09:46:14.528Z,7.44
2018-12-09T09:47:14.505Z,7.37
2018-12-09T09:48:14.227Z,7.41
2018-12-09T09:49:14.719Z,7.35
2018-12-09T09:50:14.742Z,7.42
2018-12-09T09:51:14.667Z,7.35
2018-12-09T09:52:14.140Z,7.35
2018-12-09T09:53:14.637Z,7.4
2018-12-09T09:54:14.353Z,7.37
2018-12-09T09:55:14.333Z,7.4
2018-12-09T09:56:14.063Z,7.47
2018-12-09T09:57:14.302Z,7.45
2018-12-09T09:58:14.534Z,7.53
2018-12-09T09:59:14.296Z,7.42
2018-12-09T10:00:14.501Z,7.44
2018-12-09T10:01:14.212Z,7.49
2018-12-09T10:02:14.474Z,7.45
2018-12-09T10:03:14.194Z,7.5
2018-12-09T10:04:14.411Z,7.45
2018-12-09T10:05:14.407Z,7.45
2018-12-09T10:06:14.498Z,7.49
2018-12-09T10:07:14.363Z,7.53
2018-12-09T10:08:14.087Z,7.47
2018-12-09T10:09:14.306Z,7.44
2018-12-09T10:10:14.282Z,7.41
2018-12-09T10:11:13.762Z,7.44
2018-12-09T10:12:14.010Z,7.41
2018-12-09T10:13:13.720Z,7.42
2018-12-09T10:14:14.243Z,7.41
2018-12-09T10:15:14.037Z,7.32
2018-12-09T10:16:13.918Z,7.38
2018-12-09T10:17:14.228Z,7.35
2018-12-09T10:18:14.176Z,7.44
2018-12-09T10:19:14.247Z,7.31
2018-12-09T10:20:14.151Z,7.31
2018-12-09T10:21:14.171Z,7.32
2018-12-09T10:22:14.109Z,7.29
2018-12-09T10:23:13.526Z,7.27
2018-12-09T10:24:14.106Z,7.29
2018-12-09T10:25:14.020Z,7.38
2018-12-09T10:26:13.774Z,7.26
2018-12-09T10:27:14.062Z,7.31
2018-12-09T10:28:13.425Z,7.22
2018-12-09T10:29:13.771Z,7.2
2018-12-09T10:30:13.660Z,7.24
2018-12-09T10:31:13.882Z,7.29
2018-12-09T10:32:13.854Z,7.23
2018-12-09T10:33:13.847Z,7.26
2018-12-09T10:34:13.814Z,7.24
2018-12-09T10:35:13.787Z,7.34
2018-12-09T10:36:13.770Z,7.29
2018-12-09T10:37:13.484Z,7.24
2018-12-09T10:38:13.469Z,7.32
2018-12-09T10:39:13.558Z,7.31
2018-12-09T10:40:13.424Z,7.29
2018-12-09T10:41:13.672Z,7.35
2018-12-09T10:42:13.389Z,7.37
2018-12-09T10:43:13.365Z,7.38
2018-12-09T10:44:13.599Z,7.31
2018-12-09T10:45:13.381Z,7.44
2018-12-09T10:46:13.307Z,7.38
2018-12-09T10:47:13.364Z,7.44
2018-12-09T10:48:13.275Z,7.41
2018-12-09T10:49:13.016Z,7.49
2018-12-09T10:50:13.481Z,7.53
2018-12-09T10:51:12.954Z,7.52
2018-12-09T10:52:13.052Z,7.52
2018-12-09T10:53:13.175Z,7.55
2018-12-09T10:54:13.398Z,7.58
2018-12-09T10:55:13.142Z,7.55
2018-12-09T10:56:13.112Z,7.58
2018-12-09T10:57:13.351Z,7.56
2018-12-09T10:58:13.328Z,7.55
2018-12-09T10:59:12.795Z,7.49
2018-12-09T11:00:13.292Z,7.53
2018-12-09T11:01:13.265Z,7.5
2018-12-09T11:02:12.741Z,7.55
2018-12-09T11:03:13.023Z,7.56
2018-12-09T11:04:12.955Z,7.55
2018-12-09T11:05:13.272Z,7.5
2018-12-09T11:06:13.168Z,7.55
2018-12-09T11:07:12.902Z,7.5
2018-12-09T11:08:12.873Z,7.55
2018-12-09T11:09:13.105Z,7.55
2018-12-09T11:10:13.083Z,7.5
2018-12-09T11:11:12.812Z,7.53
2018-12-09T11:12:12.792Z,7.62
2018-12-09T11:13:13.030Z,7.53
2018-12-09T11:14:12.755Z,7.6
2018-12-09T11:15:12.732Z,7.6
2018-12-09T11:16:13.019Z,7.66
2018-12-09T11:17:12.443Z,7.67
2018-12-09T11:18:12.690Z,7.67
2018-12-09T11:19:12.654Z,7.67
2018-12-09T11:20:12.386Z,7.69
2018-12-09T11:21:12.877Z,7.67
2018-12-09T11:22:12.597Z,7.74
2018-12-09T11:23:12.838Z,7.84
2018-12-09T11:24:12.847Z,7.82
2018-12-09T11:25:12.545Z,7.78
2018-12-09T11:26:12.620Z,7.79
2018-12-09T11:27:12.783Z,7.82
2018-12-09T11:28:12.691Z,7.79
2018-12-09T11:29:12.720Z,7.85
2018-12-09T11:30:12.450Z,7.82
2018-12-09T11:31:12.452Z,7.87
2018-12-09T11:32:12.448Z,7.82
2018-12-09T11:33:12.598Z,7.94
2018-12-09T11:34:12.616Z,7.97
2018-12-09T11:35:12.338Z,8
2018-12-09T11:36:12.346Z,7.97
2018-12-09T11:37:12.566Z,8.02
2018-12-09T11:38:12.762Z,8
2018-12-09T11:39:14.252Z,8
2018-12-09T11:40:12.241Z,8
2018-12-09T11:41:12.327Z,8.02
2018-12-09T11:42:12.468Z,8.1
2018-12-09T11:43:12.438Z,8.02
2018-12-09T11:44:12.513Z,8.03
2018-12-09T11:45:12.405Z,8.04
2018-12-09T11:46:12.138Z,8.02
2018-12-09T11:47:12.368Z,8.12
2018-12-09T11:48:12.396Z,8.03
2018-12-09T11:49:11.815Z,8.02
2018-12-09T11:50:12.178Z,8
2018-12-09T11:51:11.778Z,7.99
2018-12-09T11:52:12.036Z,8.04
2018-12-09T11:53:11.740Z,8.1
2018-12-09T11:54:11.986Z,8.03
2018-12-09T11:55:12.236Z,8.04
2018-12-09T11:56:12.198Z,8.07
2018-12-09T11:57:11.670Z,8.15
2018-12-09T11:58:11.998Z,8.2
2018-12-09T11:59:12.057Z,8.3
2018-12-09T12:00:11.886Z,8.4
2018-12-09T12:01:11.952Z,8.44
2018-12-09T12:02:19.838Z,8.39
2018-12-09T12:03:11.799Z,8.42
2018-12-09T12:04:11.792Z,8.33
2018-12-09T12:05:11.764Z,8.35
2018-12-09T12:06:11.755Z,8.3
2018-12-09T12:07:12.059Z,8.33
2018-12-09T12:08:11.976Z,8.3
2018-12-09T12:09:11.949Z,8.36
2018-12-09T12:10:11.670Z,8.3
2018-12-09T12:11:11.654Z,8.32
2018-12-09T12:12:11.890Z,8.33
2018-12-09T12:13:11.362Z,8.37
2018-12-09T12:14:11.848Z,8.36
2018-12-09T12:15:11.324Z,8.33
2018-12-09T12:16:11.875Z,8.36
2018-12-09T12:17:11.795Z,8.45
2018-12-09T12:18:11.259Z,8.48
2018-12-09T12:19:11.756Z,8.42
2018-12-09T12:20:11.737Z,8.47
2018-12-09T12:21:11.466Z,8.6
2018-12-09T12:22:11.700Z,8.71
2018-12-09T12:23:11.436Z,8.81
2018-12-09T12:24:11.414Z,8.83
2018-12-09T12:25:11.129Z,8.84
2018-12-09T12:26:11.393Z,8.83
2018-12-09T12:27:11.611Z,8.76
2018-12-09T12:28:11.338Z,8.96
2018-12-09T12:29:11.575Z,9.34
2018-12-09T12:30:11.411Z,9.58
2018-12-09T12:31:11.542Z,9.52
2018-12-09T12:32:11.261Z,9.85
2018-12-09T12:33:11.502Z,9.73
2018-12-09T12:34:11.497Z,9.57
2018-12-09T12:35:11.465Z,9.38
2018-12-09T12:36:11.202Z,9.24
2018-12-09T12:37:11.184Z,9.06
2018-12-09T12:38:11.224Z,8.93
2018-12-09T12:39:11.145Z,8.97
2018-12-09T12:40:11.138Z,8.94
2018-12-09T12:41:11.367Z,8.84
2018-12-09T12:42:11.346Z,8.86
2018-12-09T12:43:11.111Z,8.71
2018-12-09T12:44:10.793Z,8.75
2018-12-09T12:45:11.294Z,8.75
2018-12-09T12:46:11.332Z,8.71
2018-12-09T12:47:10.755Z,8.71
2018-12-09T12:48:11.100Z,8.72
2018-12-09T12:49:10.976Z,8.71
2018-12-09T12:50:11.200Z,8.71
2018-12-09T12:51:11.180Z,8.72
2018-12-09T12:52:10.916Z,8.75
2018-12-09T12:53:10.890Z,8.71
2018-12-09T12:54:11.138Z,8.84
2018-12-09T12:55:10.626Z,8.72
2018-12-09T12:56:10.584Z,8.72
2018-12-09T12:57:11.074Z,8.79
2018-12-09T12:58:10.854Z,8.91
2018-12-09T12:59:12.334Z,8.88
2018-12-09T13:00:11.029Z,8.86
2018-12-09T13:01:10.746Z,8.94
2018-12-09T13:02:10.995Z,8.9
2018-12-09T13:03:10.976Z,8.91
2018-12-09T13:04:10.944Z,8.94
2018-12-09T13:05:11.590Z,8.94
2018-12-09T13:06:10.908Z,8.97
2018-12-09T13:07:10.642Z,8.96
2018-12-09T13:08:10.663Z,8.96
2018-12-09T13:09:10.608Z,8.96
2018-12-09T13:10:10.845Z,8.87
2018-12-09T13:11:10.570Z,8.97
2018-12-09T13:12:10.549Z,8.83
2018-12-09T13:13:10.791Z,8.88
2018-12-09T13:14:10.769Z,8.91
2018-12-09T13:15:10.751Z,8.86
2018-12-09T13:16:10.229Z,8.9
2018-12-09T13:17:10.471Z,8.83
2018-12-09T13:18:10.188Z,8.84
2018-12-09T13:19:10.241Z,8.87
2018-12-09T13:20:10.413Z,8.9
2018-12-09T13:21:10.640Z,8.9